This is the latest recevied weather packets stored in our database for station/object VU36VU-13. If no packets are shown the sender has not sent any weather packets the latest 10 day(s).
| Time | Temp. | Humidity | Pressure | Rain* | Wind** | Luminosity | Snow |
|---|---|---|---|---|---|---|---|
| 1778329175 | 25.56° C | 70% | 1008 hPa | 0 mm | - | - | - |
| 1778329055 | 25.56° C | 70% | 1008 hPa | 0 mm | - | - | - |
| 1778328935 | 25° C | 73% | 1008 hPa | 0 mm | - | - | - |
| 1778328815 | 25.56° C | 70% | 1008 hPa | 0 mm | - | - | - |
| 1778328695 | 25.56° C | 70% | 1008 hPa | 0 mm | - | - | - |
| 1778328575 | 25.56° C | 70% | 1008 hPa | 0 mm | - | - | - |
| 1778328458 | 25.56° C | 70% | 1008 hPa | 0 mm | - | - | - |
| 1778328336 | 25.56° C | 70% | 1008 hPa | 0 mm | - | - | - |
| 1778328096 | 25.56° C | 70% | 1008 hPa | 0 mm | - | - | - |
| 1778327975 | 26.67° C | 66% | 1007 hPa | 0 mm | - | - | - |
| 1778327855 | 26.67° C | 66% | 1007 hPa | 0 mm | - | - | - |
| 1778327735 | 26.67° C | 66% | 1007 hPa | 0.25 mm | - | - | - |
| 1778327615 | 26.67° C | 61% | 1007 hPa | 0.25 mm | - | - | - |
| 1778327495 | 26.67° C | 61% | 1007 hPa | 0.25 mm | - | - | - |
| 1778327376 | 26.67° C | 61% | 1007 hPa | 0.25 mm | - | - | - |
| 1778327255 | 26.67° C | 61% | 1007 hPa | 0.25 mm | - | - | - |
| 1778327136 | 26.67° C | 61% | 1007 hPa | 0.25 mm | - | - | - |
| 1778326895 | 28.33° C | 52% | 1007 hPa | 0.25 mm | - | - | - |
| 1778326775 | 28.33° C | 52% | 1007 hPa | 0.25 mm | - | - | - |
| 1778326655 | 28.33° C | 52% | 1007 hPa | 0.25 mm | - | - | - |
| 1778326535 | 28.33° C | 52% | 1007 hPa | 0.25 mm | - | - | - |
| 1778326415 | 28.33° C | 52% | 1007 hPa | 0.25 mm | - | - | - |
| 1778326295 | 28.33° C | 52% | 1007 hPa | 0.25 mm | - | - | - |
| 1778326175 | 30° C | 44% | 1006 hPa | 0.25 mm | - | - | - |
| 1778326055 | 30° C | 44% | 1006 hPa | 0.25 mm | - | - | - |
* Rain latest hour (hover to see other rain measurements)
** Current wind speed in m/s (hover to see current wind gust speed)